createdAt,value
2019-05-29T03:51:02.233Z,9.84
2019-05-29T03:53:34.273Z,10.17
2019-05-29T03:56:06.278Z,10.18
2019-05-29T03:58:37.834Z,10.27
2019-05-29T04:01:10.376Z,10.38
2019-05-29T04:03:42.143Z,10.36
2019-05-29T04:06:13.398Z,10.37
2019-05-29T04:08:44.615Z,10.37
2019-05-29T04:11:15.790Z,10.24
2019-05-29T04:13:47.268Z,10.33
2019-05-29T04:16:20.300Z,10.42
2019-05-29T04:18:52.258Z,10.55
2019-05-29T04:21:25.296Z,10.44
2019-05-29T04:23:57.887Z,10.51
2019-05-29T04:26:33.640Z,10.63
2019-05-29T04:29:05.519Z,10.68
2019-05-29T04:31:37.007Z,10.66
2019-05-29T04:34:09.349Z,10.59
2019-05-29T04:36:40.465Z,10.72
2019-05-29T04:39:11.658Z,10.79
2019-05-29T04:41:43.029Z,10.69
2019-05-29T04:44:14.180Z,10.80
2019-05-29T04:46:45.503Z,11.02
2019-05-29T04:49:20.193Z,10.91
2019-05-29T04:51:49.810Z,11.10
2019-05-29T04:54:20.909Z,11.28
2019-05-29T04:56:52.037Z,11.24
2019-05-29T04:59:23.219Z,11.34
2019-05-29T05:01:54.436Z,11.26
2019-05-29T05:04:25.548Z,11.27
2019-05-29T05:06:56.697Z,11.33
2019-05-29T05:09:27.860Z,11.33
2019-05-29T05:11:59.982Z,11.56
2019-05-29T05:14:31.572Z,11.67
2019-05-29T05:17:03.074Z,11.65
2019-05-29T05:19:35.938Z,11.78
2019-05-29T05:22:08.931Z,12.04
2019-05-29T05:24:43.511Z,11.64
2019-05-29T05:27:14.405Z,11.98
2019-05-29T05:29:45.744Z,11.93
2019-05-29T05:32:17.145Z,12.17
2019-05-29T05:34:49.053Z,12.18
2019-05-29T05:37:20.214Z,12.03
2019-05-29T05:39:51.376Z,12.43
2019-05-29T05:42:22.466Z,12.66
2019-05-29T05:44:53.662Z,12.59
2019-05-29T05:47:24.831Z,12.80
2019-05-29T05:49:55.943Z,12.96
2019-05-29T05:52:27.137Z,13.12
2019-05-29T05:54:58.236Z,13.49
2019-05-29T05:57:29.342Z,13.73
2019-05-29T06:00:00.531Z,14.09
2019-05-29T06:02:31.773Z,14.15
2019-05-29T06:05:03.077Z,13.79
2019-05-29T06:07:34.260Z,14.15
2019-05-29T06:10:07.823Z,14.04
2019-05-29T06:12:40.606Z,14.42
2019-05-29T06:15:13.102Z,14.49
2019-05-29T06:18:04.533Z,14.91
2019-05-29T06:20:17.240Z,14.68
2019-05-29T06:22:48.532Z,14.78
2019-05-29T06:25:20.238Z,14.33
2019-05-29T06:27:51.404Z,14.45
2019-05-29T06:30:22.711Z,14.17
2019-05-29T06:32:53.955Z,14.49
2019-05-29T06:35:25.095Z,14.72
2019-05-29T06:37:56.183Z,14.64
2019-05-29T06:40:33.891Z,14.63
2019-05-29T06:43:05.990Z,14.83
2019-05-29T06:45:37.896Z,15.29
2019-05-29T06:48:09.602Z,15.54
2019-05-29T06:50:41.527Z,15.70
2019-05-29T06:53:12.854Z,16.78
2019-05-29T06:55:44.105Z,16.40
2019-05-29T06:58:15.421Z,15.81
2019-05-29T07:00:46.881Z,15.29
2019-05-29T07:03:18.133Z,15.02
2019-05-29T07:05:51.380Z,15.68
2019-05-29T07:08:37.563Z,15.85
2019-05-29T07:10:55.149Z,16.42
2019-05-29T07:13:26.304Z,15.74
2019-05-29T07:15:57.472Z,16.08
2019-05-29T07:18:28.644Z,16.06
2019-05-29T07:20:59.771Z,14.87
2019-05-29T07:23:30.908Z,15.60
2019-05-29T07:26:03.054Z,15.41
2019-05-29T07:28:34.191Z,14.91
2019-05-29T07:31:05.392Z,15.49
2019-05-29T07:33:37.011Z,16.20
2019-05-29T07:36:08.365Z,16.28
2019-05-29T07:38:39.683Z,16.34
2019-05-29T07:41:10.866Z,16.42
2019-05-29T07:43:43.832Z,16.72
2019-05-29T07:46:15.063Z,17.03
2019-05-29T07:50:34.268Z,16.63
2019-05-29T07:51:23.231Z,16.46
2019-05-29T07:53:54.705Z,16.55
2019-05-29T07:56:27.192Z,16.11
2019-05-29T07:59:02.845Z,16.13
2019-05-29T08:01:31.412Z,15.73
2019-05-29T08:04:02.575Z,16.13
2019-05-29T08:06:33.915Z,16.54
2019-05-29T08:09:07.011Z,16.20
2019-05-29T08:11:39.379Z,16.45
2019-05-29T08:14:10.633Z,16.57
2019-05-29T08:16:42.059Z,16.81
2019-05-29T08:19:13.548Z,16.66
2019-05-29T08:21:57.925Z,17.40
2019-05-29T08:24:29.038Z,17.13
2019-05-29T08:27:00.156Z,17.24
2019-05-29T08:29:31.465Z,17.77
2019-05-29T08:32:02.552Z,17.89
2019-05-29T08:34:34.083Z,17.72
2019-05-29T08:37:07.446Z,17.64
2019-05-29T08:39:38.057Z,17.75
2019-05-29T08:42:22.421Z,18.18
2019-05-29T08:44:43.269Z,18.68
2019-05-29T08:47:14.632Z,18.51
2019-05-29T08:49:48.080Z,18.31
2019-05-29T08:52:18.533Z,18.43
2019-05-29T08:54:50.128Z,18.29
2019-05-29T08:57:21.375Z,17.77
2019-05-29T08:59:52.742Z,17.29
2019-05-29T09:02:23.930Z,17.90
2019-05-29T09:04:55.097Z,18.44
2019-05-29T09:07:26.566Z,18.19
2019-05-29T09:09:58.370Z,17.61
2019-05-29T09:12:30.116Z,17.58
2019-05-29T09:15:01.386Z,18.02
2019-05-29T09:17:34.595Z,17.10
2019-05-29T09:20:25.317Z,17.49
2019-05-29T09:22:41.045Z,17.86
2019-05-29T09:25:14.246Z,18.38
2019-05-29T09:27:45.679Z,18.13
2019-05-29T09:30:19.668Z,18.14
2019-05-29T09:32:52.754Z,19.36
2019-05-29T09:35:24.923Z,18.27
2019-05-29T09:37:57.294Z,18.54
2019-05-29T09:40:28.415Z,17.75
2019-05-29T09:42:59.542Z,18.48
2019-05-29T09:45:30.797Z,19.13
2019-05-29T09:48:02.021Z,19.05
2019-05-29T09:50:49.351Z,17.69
2019-05-29T09:53:06.221Z,17.48
2019-05-29T09:55:37.318Z,17.84
2019-05-29T09:58:09.471Z,18.77
2019-05-29T10:00:40.668Z,19.19
2019-05-29T10:03:11.776Z,19.63
2019-05-29T10:05:43.131Z,19.54
2019-05-29T10:08:16.997Z,18.76
2019-05-29T10:10:47.411Z,19.57
2019-05-29T10:13:18.725Z,19.10
2019-05-29T10:15:49.868Z,19.21
2019-05-29T10:18:32.116Z,20.02
2019-05-29T10:20:55.846Z,20.26
2019-05-29T10:23:26.763Z,20.03
2019-05-29T10:26:00.714Z,19.69
2019-05-29T10:28:49.331Z,19.47
2019-05-29T10:31:05.124Z,19.17
2019-05-29T10:33:37.631Z,18.95
2019-05-29T10:36:08.761Z,18.60
2019-05-29T10:38:39.938Z,18.77
2019-05-29T10:41:11.110Z,19.21
2019-05-29T10:43:42.922Z,19.74
2019-05-29T10:46:14.508Z,19.20
2019-05-29T10:48:49.362Z,18.76
2019-05-29T10:51:18.518Z,18.42
2019-05-29T10:53:51.896Z,18.60
2019-05-29T10:56:23.770Z,18.72
2019-05-29T10:58:59.600Z,19.40
2019-05-29T11:01:28.625Z,19.47
2019-05-29T11:03:59.787Z,19.21
2019-05-29T11:06:31.118Z,18.94
2019-05-29T11:09:02.365Z,18.56
2019-05-29T11:11:33.475Z,18.30
2019-05-29T11:14:04.750Z,18.76
2019-05-29T11:16:39.592Z,18.66
2019-05-29T11:19:08.689Z,19.52
2019-05-29T11:21:39.883Z,20.06
2019-05-29T11:24:10.995Z,18.99
2019-05-29T11:26:42.201Z,18.73
2019-05-29T11:29:14.401Z,19.44
2019-05-29T11:31:45.491Z,19.72
2019-05-29T11:34:18.439Z,19.78
2019-05-29T11:36:49.993Z,19.32
2019-05-29T11:39:21.294Z,19.76
2019-05-29T11:41:52.734Z,20.07
2019-05-29T11:44:24.007Z,19.42
2019-05-29T11:46:56.126Z,19.31
2019-05-29T11:49:27.437Z,18.82
2019-05-29T11:52:22.560Z,19.22
2019-05-29T11:54:36.902Z,19.36
2019-05-29T11:57:08.011Z,19.83
2019-05-29T11:59:39.166Z,20.04
2019-05-29T12:02:10.334Z,19.28
2019-05-29T12:04:41.485Z,19.07
2019-05-29T12:07:12.732Z,19.36
2019-05-29T12:09:43.859Z,19.13
2019-05-29T12:12:15.050Z,19.31
2019-05-29T12:15:00.710Z,20.17
2019-05-29T12:17:19.123Z,20.72
2019-05-29T12:19:50.334Z,20.91
2019-05-29T12:22:21.553Z,20.97
2019-05-29T12:24:54.391Z,21.55
2019-05-29T12:27:25.772Z,20.70
2019-05-29T12:29:57.038Z,20.03
2019-05-29T12:32:29.462Z,20.41
2019-05-29T12:35:01.124Z,21.24
2019-05-29T12:37:32.322Z,21.89
2019-05-29T12:40:04.906Z,22.01
2019-05-29T12:42:36.974Z,22.44
2019-05-29T12:45:09.015Z,22.84
2019-05-29T12:51:00.227Z,21.90
2019-05-29T12:53:34.021Z,21.24
2019-05-29T12:56:05.528Z,21.36
2019-05-29T12:58:36.698Z,22.16
2019-05-29T13:01:07.897Z,22.21
2019-05-29T13:03:45.029Z,21.79
2019-05-29T13:06:36.234Z,21.92
2019-05-29T13:09:08.887Z,21.75
2019-05-29T13:11:39.981Z,23.42
2019-05-29T13:14:11.125Z,23.61
2019-05-29T13:16:42.209Z,22.97
2019-05-29T13:19:13.359Z,22.80
2019-05-29T13:21:44.476Z,22.62
2019-05-29T13:24:15.640Z,22.34
2019-05-29T13:26:46.813Z,22.20
2019-05-29T13:29:17.883Z,20.69
2019-05-29T13:31:48.994Z,21.13
2019-05-29T13:34:20.180Z,20.92
2019-05-29T13:36:52.347Z,20.55
2019-05-29T13:39:23.498Z,21.02
2019-05-29T13:41:54.640Z,22.40
2019-05-29T13:44:26.238Z,23.14
2019-05-29T13:46:57.800Z,21.55
2019-05-29T13:49:29.013Z,20.96
2019-05-29T13:52:02.246Z,21.18
2019-05-29T13:54:33.020Z,21.36
2019-05-29T13:57:08.736Z,21.78
2019-05-29T13:59:41.416Z,22.70
2019-05-29T14:02:12.548Z,22.38
2019-05-29T14:04:45.776Z,21.40
2019-05-29T14:07:18.282Z,22.07
2019-05-29T14:09:49.417Z,22.18
2019-05-29T14:12:21.569Z,22.24
2019-05-29T14:14:52.881Z,23.34
2019-05-29T14:17:24.108Z,23.63
2019-05-29T14:19:55.279Z,23.52
2019-05-29T14:22:26.595Z,23.40
2019-05-29T14:24:58.731Z,23.08
2019-05-29T14:27:29.835Z,22.18
2019-05-29T14:30:01.504Z,22.26
2019-05-29T14:32:34.596Z,22.72
2019-05-29T14:35:10.864Z,23.53
2019-05-29T14:37:43.425Z,23.07
2019-05-29T14:40:16.193Z,23.95
2019-05-29T14:42:47.370Z,22.53
2019-05-29T14:45:18.793Z,21.89
2019-05-29T14:47:50.207Z,21.39
2019-05-29T14:50:21.287Z,22.80
2019-05-29T14:52:52.621Z,22.45
2019-05-29T14:55:24.685Z,22.69
2019-05-29T14:57:57.019Z,21.80
2019-05-29T15:00:28.870Z,23.12
2019-05-29T15:02:59.987Z,23.36
2019-05-29T15:05:33.145Z,23.26
2019-05-29T15:08:06.139Z,23.95
2019-05-29T15:10:37.357Z,23.82
2019-05-29T15:13:09.177Z,23.75
2019-05-29T15:15:42.474Z,23.40
2019-05-29T15:18:17.320Z,21.87
2019-05-29T15:20:46.398Z,21.31
2019-05-29T15:23:17.586Z,20.51
2019-05-29T15:25:50.210Z,20.87
2019-05-29T15:28:21.605Z,20.11
2019-05-29T15:30:54.209Z,19.52
2019-05-29T15:33:25.327Z,20.60
2019-05-29T15:35:56.719Z,22.35
2019-05-29T15:38:31.453Z,24.35
2019-05-29T15:41:03.588Z,25.05
2019-05-29T15:43:34.722Z,24.68
2019-05-29T15:49:37.118Z,25.77
2019-05-29T15:52:08.987Z,23.50
2019-05-29T15:54:40.320Z,24.43
2019-05-29T15:57:11.800Z,24.39
2019-05-29T15:59:43.293Z,24.69
2019-05-29T16:02:15.735Z,23.18
2019-05-29T16:04:48.384Z,21.42
2019-05-29T16:07:22.807Z,23.35
2019-05-29T16:09:56.387Z,25.17
2019-05-29T16:12:31.140Z,26.88
2019-05-29T16:15:04.615Z,26.85
2019-05-29T16:17:36.824Z,26.19
2019-05-29T16:20:12.339Z,26.80
2019-05-29T16:22:44.660Z,26.18
2019-05-29T16:25:17.079Z,25.51
2019-05-29T16:27:49.355Z,23.63
2019-05-29T16:30:21.895Z,24.42
2019-05-29T16:32:58.883Z,23.16
2019-05-29T16:35:31.914Z,21.89
2019-05-29T16:38:03.176Z,21.20
2019-05-29T16:40:34.704Z,21.04
2019-05-29T16:43:06.011Z,20.21
2019-05-29T16:45:38.702Z,20.52
2019-05-29T16:48:12.882Z,19.79
2019-05-29T16:50:46.568Z,19.92
2019-05-29T16:53:20.947Z,19.51
2019-05-29T16:55:54.350Z,19.79
2019-05-29T16:58:27.266Z,19.92
2019-05-29T17:00:59.198Z,19.93
2019-05-29T17:03:32.289Z,20.30
2019-05-29T17:06:04.650Z,21.73
2019-05-29T17:08:36.587Z,23.54
2019-05-29T17:11:08.697Z,24.65
2019-05-29T17:16:39.105Z,25.35
2019-05-29T17:19:11.034Z,24.93
2019-05-29T17:21:43.742Z,24.51
2019-05-29T17:24:16.645Z,22.74
2019-05-29T17:26:49.019Z,22.07
2019-05-29T17:29:22.876Z,23.74
2019-05-29T17:31:55.575Z,25.14
2019-05-29T17:34:29.298Z,23.68
2019-05-29T17:37:01.363Z,22.56
2019-05-29T17:39:34.539Z,22.38
2019-05-29T17:42:07.653Z,21.99
2019-05-29T17:44:41.065Z,21.75
2019-05-29T17:47:13.438Z,22.54
2019-05-29T17:49:46.280Z,23.94
2019-05-29T17:52:19.666Z,23.62
2019-05-29T17:54:51.756Z,23.42
2019-05-29T17:57:23.894Z,24.05
2019-05-29T17:59:55.734Z,24.24
2019-05-29T18:02:27.639Z,23.62
2019-05-29T18:05:00.548Z,22.79
2019-05-29T18:07:34.295Z,21.19
2019-05-29T18:10:08.249Z,20.34
2019-05-29T18:12:40.016Z,19.35
2019-05-29T18:15:14.150Z,18.45
2019-05-29T18:17:47.516Z,19.55
2019-05-29T18:20:19.956Z,20.99
2019-05-29T18:22:52.135Z,19.78
2019-05-29T18:25:24.139Z,19.11
2019-05-29T18:27:56.255Z,18.26
2019-05-29T18:30:28.831Z,17.77
2019-05-29T18:33:00.221Z,17.36
2019-05-29T18:35:31.492Z,17.00
2019-05-29T18:38:02.731Z,16.52
2019-05-29T18:40:36.189Z,16.06
2019-05-29T18:43:08.446Z,15.64
2019-05-29T18:45:39.471Z,15.37
2019-05-29T18:48:10.511Z,15.08
2019-05-29T18:50:44.258Z,14.89
2019-05-29T18:53:14.362Z,14.74
2019-05-29T18:55:45.386Z,14.52
2019-05-29T18:58:16.485Z,14.30
2019-05-29T19:00:47.564Z,14.18
2019-05-29T19:03:19.676Z,13.97
2019-05-29T19:05:50.743Z,13.80
2019-05-29T19:08:21.776Z,13.65
